Time;durP1;ratioP1;P1;durP2;ratioP2;P2;SDS_P1;SDS_P2;PMS_P1;PMS_P2;Temp;Humidity;BMP_temperature;BMP_pressure;BME280_temperature;BME280_humidity;BME280_pressure;Samples;Min_cycle;Max_cycle;Signal;HPM_P1;HPM_P2
2021/03/18 00:01:30;;;;;;;20.90;10.45;;;;;;;;;;5034218;28;20471;-58
2021/03/18 00:03:57;;;;;;;21.85;10.80;;;;;;;;;;5034152;28;20060;-59
2021/03/18 00:06:23;;;;;;;19.13;10.10;;;;;;;;;;5033775;28;20025;-58
2021/03/18 00:08:50;;;;;;;21.38;10.75;;;;;;;;;;5033986;28;20113;-59
2021/03/18 00:11:17;;;;;;;21.52;10.52;;;;;;;;;;5033842;28;20026;-59
2021/03/18 00:13:44;;;;;;;21.00;10.43;;;;;;;;;;5033782;28;20025;-60
2021/03/18 00:16:10;;;;;;;19.75;10.13;;;;;;;;;;5033825;28;20029;-61
2021/03/18 00:18:44;;;;;;;20.05;9.45;;;;;;;;;;5012209;28;20403;-62
2021/03/18 00:21:11;;;;;;;20.33;10.18;;;;;;;;;;5031240;28;20087;-62
2021/03/18 00:23:37;;;;;;;21.25;9.80;;;;;;;;;;5033933;28;20033;-60
2021/03/18 00:26:03;;;;;;;20.08;9.45;;;;;;;;;;5033584;28;20455;-60
2021/03/18 00:28:30;;;;;;;22.08;10.02;;;;;;;;;;5033333;28;20021;-61
2021/03/18 00:30:56;;;;;;;24.50;9.18;;;;;;;;;;5032888;28;20029;-59
2021/03/18 00:33:22;;;;;;;15.90;7.56;;;;;;;;;;4338348;28;10021566;-61
2021/03/18 00:35:48;;;;;;;20.63;9.65;;;;;;;;;;5025414;28;20284;-58
2021/03/18 00:38:14;;;;;;;19.67;9.65;;;;;;;;;;5029750;28;20025;-53
2021/03/18 00:40:45;;;;;;;19.95;9.05;;;;;;;;;;5012536;28;20025;-57
2021/03/18 00:43:12;;;;;;;21.85;9.82;;;;;;;;;;5030245;28;20056;-56
2021/03/18 00:45:40;;;;;;;23.47;12.07;;;;;;;;;;5029328;28;20021;-60
2021/03/18 00:48:07;;;;;;;23.15;9.70;;;;;;;;;;5017406;28;20014;-60
2021/03/18 00:50:46;;;;;;;21.48;10.63;;;;;;;;;;5029865;28;20037;-60
2021/03/18 00:53:13;;;;;;;20.05;8.82;;;;;;;;;;5024149;28;20030;-58
2021/03/18 00:55:40;;;;;;;20.08;9.52;;;;;;;;;;5010477;28;20031;-59
2021/03/18 00:58:06;;;;;;;19.05;8.75;;;;;;;;;;5010435;28;20400;-61
2021/03/18 01:00:40;;;;;;;20.23;8.52;;;;;;;;;;5021881;28;20029;-58
2021/03/18 01:03:06;;;;;;;20.02;8.63;;;;;;;;;;5030007;28;20594;-59
2021/03/18 01:05:38;;;;;;;24.55;9.52;;;;;;;;;;5027694;28;20037;-58
2021/03/18 01:08:04;;;;;;;19.25;8.02;;;;;;;;;;5014248;28;20022;-63
2021/03/18 01:10:32;;;;;;;19.30;8.18;;;;;;;;;;5011936;28;20026;-59
2021/03/18 01:12:58;;;;;;;19.42;8.55;;;;;;;;;;5012382;28;20425;-62
2021/03/18 01:15:26;;;;;;;19.70;8.50;;;;;;;;;;5012273;28;20030;-61
2021/03/18 01:17:52;;;;;;;20.77;8.55;;;;;;;;;;5011793;28;20096;-60
2021/03/18 01:20:18;;;;;;;22.05;8.02;;;;;;;;;;4994435;28;20042;-59
2021/03/18 01:22:44;;;;;;;21.95;8.45;;;;;;;;;;5026200;28;20387;-60
2021/03/18 01:25:11;;;;;;;24.65;8.63;;;;;;;;;;5031636;28;20045;-60
2021/03/18 01:27:38;;;;;;;20.67;8.38;;;;;;;;;;5023101;28;20028;-59
2021/03/18 01:30:09;;;;;;;23.40;8.95;;;;;;;;;;5033365;28;20370;-62
2021/03/18 01:32:35;;;;;;;19.38;8.30;;;;;;;;;;5032850;28;20108;-61
2021/03/18 01:35:01;;;;;;;17.80;8.05;;;;;;;;;;5033236;28;20026;-61
2021/03/18 01:37:27;;;;;;;19.80;7.75;;;;;;;;;;5015388;28;20052;-59
2021/03/18 01:39:55;;;;;;;22.60;8.77;;;;;;;;;;5015708;28;20709;-59
2021/03/18 01:42:21;;;;;;;20.83;7.57;;;;;;;;;;5033203;28;20392;-59
2021/03/18 01:44:47;;;;;;;18.70;9.18;;;;;;;;;;5033119;28;20018;-61
2021/03/18 01:47:13;;;;;;;17.67;7.78;;;;;;;;;;5033105;28;20026;-57
2021/03/18 01:49:39;;;;;;;19.65;8.25;;;;;;;;;;5014893;28;20484;-61
2021/03/18 01:52:05;;;;;;;19.60;8.07;;;;;;;;;;5031954;28;20036;-60
2021/03/18 01:54:31;;;;;;;20.73;8.43;;;;;;;;;;5032827;28;20025;-63
2021/03/18 01:56:58;;;;;;;21.17;9.73;;;;;;;;;;5032621;28;20075;-61
2021/03/18 01:59:24;;;;;;;23.58;9.40;;;;;;;;;;5033111;28;20075;-63
2021/03/18 02:01:51;;;;;;;19.58;9.45;;;;;;;;;;5018188;28;20392;-62
2021/03/18 02:04:17;;;;;;;19.50;8.60;;;;;;;;;;5032798;28;20068;-62
2021/03/18 02:06:44;;;;;;;20.67;8.50;;;;;;;;;;5032468;28;20543;-60
2021/03/18 02:09:10;;;;;;;22.77;9.85;;;;;;;;;;5032090;28;20049;-54
2021/03/18 02:11:36;;;;;;;22.55;9.18;;;;;;;;;;5032654;28;20060;-62
2021/03/18 02:14:02;;;;;;;20.80;8.63;;;;;;;;;;5027372;28;20080;-61
2021/03/18 02:16:31;;;;;;;19.40;8.38;;;;;;;;;;5032379;28;20022;-60
2021/03/18 02:19:07;;;;;;;22.30;8.57;;;;;;;;;;5032317;28;20029;-61
2021/03/18 02:21:51;;;;;;;20.50;8.23;;;;;;;;;;5032154;28;20034;-60
2021/03/18 02:24:20;;;;;;;19.85;8.88;;;;;;;;;;5032255;28;20065;-63
2021/03/18 02:26:46;;;;;;;21.38;9.60;;;;;;;;;;5032505;28;20033;-60
2021/03/18 02:29:18;;;;;;;17.98;9.30;;;;;;;;;;5032565;28;20029;-57
2021/03/18 02:31:53;;;;;;;19.27;8.98;;;;;;;;;;5032426;28;20033;-59
2021/03/18 02:34:46;;;;;;;20.40;8.90;;;;;;;;;;5032531;28;20029;-60
2021/03/18 02:37:13;;;;;;;21.75;8.55;;;;;;;;;;5029570;28;20413;-62
2021/03/18 02:39:46;;;;;;;19.70;8.05;;;;;;;;;;5032032;28;20057;-60
2021/03/18 02:42:15;;;;;;;19.67;8.70;;;;;;;;;;5032343;28;20021;-58
2021/03/18 02:44:44;;;;;;;21.90;8.70;;;;;;;;;;5032437;28;20033;-62
2021/03/18 02:47:11;;;;;;;19.58;8.60;;;;;;;;;;5032085;28;20100;-63
2021/03/18 02:49:47;;;;;;;20.65;7.80;;;;;;;;;;5007929;28;20504;-59
2021/03/18 02:52:14;;;;;;;19.48;8.73;;;;;;;;;;5032171;28;20221;-62
2021/03/18 02:54:42;;;;;;;26.85;8.20;;;;;;;;;;5014923;28;20029;-63
2021/03/18 02:57:09;;;;;;;24.98;8.77;;;;;;;;;;5019827;28;20117;-60
2021/03/18 02:59:36;;;;;;;23.52;9.52;;;;;;;;;;5031859;28;20040;-57
2021/03/18 03:02:03;;;;;;;28.52;10.05;;;;;;;;;;5033371;28;20476;-60
2021/03/18 03:04:30;;;;;;;19.92;8.60;;;;;;;;;;5036196;28;20040;-60
2021/03/18 03:06:57;;;;;;;21.83;9.82;;;;;;;;;;5035851;28;20022;-59
2021/03/18 03:09:23;;;;;;;21.88;9.52;;;;;;;;;;5033590;28;20025;-60
2021/03/18 03:11:50;;;;;;;23.25;9.43;;;;;;;;;;5030389;28;20025;-60
2021/03/18 03:14:18;;;;;;;23.98;9.05;;;;;;;;;;5035563;28;20038;-63
2021/03/18 03:16:45;;;;;;;21.45;9.25;;;;;;;;;;5035789;28;20022;-62
2021/03/18 03:19:11;;;;;;;22.73;8.98;;;;;;;;;;5035140;28;20512;-62
2021/03/18 03:21:37;;;;;;;21.88;8.77;;;;;;;;;;5034409;28;20112;-62
2021/03/18 03:24:06;;;;;;;25.38;10.93;;;;;;;;;;5035337;28;20030;-61
2021/03/18 03:26:33;;;;;;;24.92;10.32;;;;;;;;;;5034271;28;20029;-61
2021/03/18 03:29:00;;;;;;;28.17;10.80;;;;;;;;;;5035696;28;20554;-59
2021/03/18 03:31:26;;;;;;;28.83;12.02;;;;;;;;;;5035460;28;20570;-60
2021/03/18 03:33:52;;;;;;;20.65;9.80;;;;;;;;;;5035761;28;20026;-62
2021/03/18 03:36:18;;;;;;;22.63;10.25;;;;;;;;;;5023788;28;20502;-62
2021/03/18 03:38:44;;;;;;;22.50;9.80;;;;;;;;;;5017535;28;20029;-61
2021/03/18 03:41:10;;;;;;;24.70;10.70;;;;;;;;;;5030193;28;20041;-62
2021/03/18 03:43:36;;;;;;;27.90;10.02;;;;;;;;;;5035323;28;20030;-60
2021/03/18 03:46:03;;;;;;;26.88;10.38;;;;;;;;;;5034594;28;20025;-62
2021/03/18 03:48:31;;;;;;;24.30;10.80;;;;;;;;;;5034850;28;20025;-56
2021/03/18 03:50:58;;;;;;;22.08;9.25;;;;;;;;;;5034805;28;20026;-62
2021/03/18 03:53:28;;;;;;;22.25;9.70;;;;;;;;;;5035586;28;20060;-60
2021/03/18 03:56:04;;;;;;;22.60;11.25;;;;;;;;;;5035354;28;20047;-58
2021/03/18 03:58:49;;;;;;;29.15;12.48;;;;;;;;;;5017356;28;20025;-61
2021/03/18 04:01:17;;;;;;;35.95;13.75;;;;;;;;;;5034981;28;20527;-58
2021/03/18 04:03:44;;;;;;;40.88;14.23;;;;;;;;;;5034967;28;20025;-61
2021/03/18 04:06:10;;;;;;;37.50;15.88;;;;;;;;;;5034725;28;20433;-62
2021/03/18 04:08:39;;;;;;;35.15;14.27;;;;;;;;;;5034875;28;20032;-60
2021/03/18 04:11:07;;;;;;;39.47;14.55;;;;;;;;;;5034597;28;20025;-60
2021/03/18 04:13:33;;;;;;;33.08;13.85;;;;;;;;;;5030728;28;20100;-62
2021/03/18 04:16:01;;;;;;;40.63;15.02;;;;;;;;;;5008196;28;20113;-59
2021/03/18 04:18:28;;;;;;;30.30;15.75;;;;;;;;;;5033573;28;20030;-60
2021/03/18 04:20:55;;;;;;;33.70;16.02;;;;;;;;;;5029466;28;20033;-62
2021/03/18 04:23:21;;;;;;;29.92;13.48;;;;;;;;;;5029908;28;20117;-62
2021/03/18 04:25:48;;;;;;;28.50;13.20;;;;;;;;;;5034264;28;20017;-60
2021/03/18 04:28:14;;;;;;;26.45;12.13;;;;;;;;;;5034131;28;20018;-59
2021/03/18 04:30:41;;;;;;;40.60;15.95;;;;;;;;;;5034228;28;20032;-60
2021/03/18 04:33:07;;;;;;;35.70;12.63;;;;;;;;;;5034123;28;20080;-53
2021/03/18 04:35:33;;;;;;;28.77;13.40;;;;;;;;;;5034485;28;20049;-57
2021/03/18 04:38:00;;;;;;;30.60;13.13;;;;;;;;;;5032770;28;20033;-60
2021/03/18 04:40:26;;;;;;;34.72;12.55;;;;;;;;;;5021278;28;20558;-60
2021/03/18 04:42:52;;;;;;;34.25;14.13;;;;;;;;;;5033826;28;20036;-60
2021/03/18 04:45:20;;;;;;;35.95;15.90;;;;;;;;;;5016584;28;20171;-62
2021/03/18 04:47:47;;;;;;;37.97;16.13;;;;;;;;;;5016162;28;20168;-60
2021/03/18 04:50:14;;;;;;;40.58;13.75;;;;;;;;;;5033503;28;20107;-61
2021/03/18 04:52:41;;;;;;;36.47;15.00;;;;;;;;;;5033856;28;20512;-59
2021/03/18 04:55:11;;;;;;;32.00;15.40;;;;;;;;;;5034022;28;20028;-60
2021/03/18 04:57:40;;;;;;;37.85;16.73;;;;;;;;;;5033833;28;20027;-60
2021/03/18 05:00:08;;;;;;;35.90;16.40;;;;;;;;;;5033419;28;20105;-56
2021/03/18 05:02:36;;;;;;;39.25;13.93;;;;;;;;;;5033241;28;20396;-61
2021/03/18 05:05:02;;;;;;;30.80;14.73;;;;;;;;;;5033845;28;20389;-60
2021/03/18 05:07:30;;;;;;;37.40;14.00;;;;;;;;;;5023949;28;20075;-62
2021/03/18 05:09:56;;;;;;;29.80;12.73;;;;;;;;;;5033732;28;20068;-59
2021/03/18 05:12:22;;;;;;;36.78;15.07;;;;;;;;;;5033367;28;20032;-62
2021/03/18 05:14:48;;;;;;;32.50;13.25;;;;;;;;;;5032617;28;20026;-59
2021/03/18 05:17:16;;;;;;;30.98;12.80;;;;;;;;;;5032533;28;20108;-59
2021/03/18 05:19:42;;;;;;;28.58;12.75;;;;;;;;;;5033598;28;20420;-61
2021/03/18 05:22:08;;;;;;;26.70;13.05;;;;;;;;;;5032701;28;20030;-60
2021/03/18 05:24:37;;;;;;;29.30;12.27;;;;;;;;;;5032691;28;20040;-63
2021/03/18 05:27:03;;;;;;;32.28;13.10;;;;;;;;;;5032556;28;20025;-56
2021/03/18 05:29:29;;;;;;;33.60;12.25;;;;;;;;;;5033140;28;20029;-57
2021/03/18 05:31:55;;;;;;;26.08;12.02;;;;;;;;;;5032960;28;20037;-61
2021/03/18 05:34:21;;;;;;;26.10;11.55;;;;;;;;;;5033100;28;20029;-59
2021/03/18 05:36:47;;;;;;;31.20;12.80;;;;;;;;;;5027876;28;20511;-60
2021/03/18 05:39:13;;;;;;;29.23;13.82;;;;;;;;;;5030774;28;20037;-59
2021/03/18 05:41:39;;;;;;;41.50;15.48;;;;;;;;;;5032916;28;20025;-60
2021/03/18 05:44:06;;;;;;;28.42;13.00;;;;;;;;;;5033100;28;20052;-60
2021/03/18 05:46:33;;;;;;;31.45;12.90;;;;;;;;;;5033228;28;20018;-60
2021/03/18 05:49:00;;;;;;;31.63;13.70;;;;;;;;;;5032865;28;20084;-56
2021/03/18 05:51:27;;;;;;;27.30;12.02;;;;;;;;;;5015353;28;20025;-57
2021/03/18 05:53:53;;;;;;;28.25;14.55;;;;;;;;;;5032574;28;20021;-58
2021/03/18 05:56:20;;;;;;;30.00;12.68;;;;;;;;;;5014799;28;20037;-60
2021/03/18 05:58:47;;;;;;;25.50;12.18;;;;;;;;;;5032302;28;20038;-62
2021/03/18 06:01:14;;;;;;;28.35;13.32;;;;;;;;;;5032401;28;20099;-56
2021/03/18 06:03:40;;;;;;;28.60;14.52;;;;;;;;;;5032393;28;20029;-57
2021/03/18 06:06:08;;;;;;;32.85;13.52;;;;;;;;;;5032205;28;20025;-58
2021/03/18 06:08:40;;;;;;;29.98;13.70;;;;;;;;;;5031363;28;20018;-59
2021/03/18 06:11:08;;;;;;;26.67;12.27;;;;;;;;;;5030805;28;20116;-61
2021/03/18 06:13:35;;;;;;;29.50;12.90;;;;;;;;;;5032647;28;20484;-59
2021/03/18 06:16:01;;;;;;;29.85;12.80;;;;;;;;;;5032717;28;20631;-56
2021/03/18 06:18:27;;;;;;;31.65;13.57;;;;;;;;;;5032024;28;20124;-63
2021/03/18 06:20:55;;;;;;;30.90;13.93;;;;;;;;;;5032457;28;20370;-57
2021/03/18 06:23:21;;;;;;;30.25;13.65;;;;;;;;;;5031651;28;20028;-58
2021/03/18 06:25:48;;;;;;;30.85;12.35;;;;;;;;;;5032156;28;20583;-57
2021/03/18 06:28:24;;;;;;;31.88;13.75;;;;;;;;;;5032011;28;20096;-55
2021/03/18 06:30:58;;;;;;;26.60;12.73;;;;;;;;;;5031133;28;20108;-61
2021/03/18 06:33:26;;;;;;;30.58;12.48;;;;;;;;;;5012397;28;20082;-61
2021/03/18 06:35:52;;;;;;;31.23;12.25;;;;;;;;;;5012107;28;20103;-63
2021/03/18 06:38:18;;;;;;;25.13;12.65;;;;;;;;;;5020273;28;20025;-59
2021/03/18 06:40:45;;;;;;;28.13;12.60;;;;;;;;;;5031864;28;20026;-62
2021/03/18 06:43:11;;;;;;;28.27;11.65;;;;;;;;;;5024509;28;20036;-59
2021/03/18 06:45:42;;;;;;;26.13;12.35;;;;;;;;;;5031920;28;20028;-54
2021/03/18 06:48:10;;;;;;;27.73;11.82;;;;;;;;;;5031676;28;20024;-58
2021/03/18 06:50:37;;;;;;;27.38;12.25;;;;;;;;;;5030338;28;20082;-57
2021/03/18 06:53:16;;;;;;;23.00;11.00;;;;;;;;;;5031250;28;20025;-62
2021/03/18 06:55:42;;;;;;;29.33;13.98;;;;;;;;;;5014849;28;20037;-63
2021/03/18 06:58:14;;;;;;;27.27;12.52;;;;;;;;;;5031436;28;20021;-60
2021/03/18 07:00:41;;;;;;;30.40;14.18;;;;;;;;;;5031865;28;20108;-62
2021/03/18 07:03:11;;;;;;;32.35;16.77;;;;;;;;;;5031260;28;20033;-57
2021/03/18 07:05:39;;;;;;;30.83;14.20;;;;;;;;;;5031422;28;20029;-58
2021/03/18 07:08:05;;;;;;;30.25;12.20;;;;;;;;;;5038378;22;20133;-61
2021/03/18 07:10:35;;;;;;;31.00;14.48;;;;;;;;;;4986229;28;20022;-63
2021/03/18 07:13:14;;;;;;;30.45;13.57;;;;;;;;;;5009246;28;20029;-60
2021/03/18 07:15:40;;;;;;;32.00;14.02;;;;;;;;;;5004714;28;20169;-61
2021/03/18 07:18:07;;;;;;;34.00;14.20;;;;;;;;;;5011843;28;20489;-60
2021/03/18 07:20:33;;;;;;;33.78;14.85;;;;;;;;;;4994392;28;20033;-57
2021/03/18 07:22:59;;;;;;;37.00;16.25;;;;;;;;;;4992483;28;20554;-61
2021/03/18 07:25:28;;;;;;;33.25;13.73;;;;;;;;;;5010522;28;20026;-60
2021/03/18 07:27:59;;;;;;;31.10;14.00;;;;;;;;;;4994526;28;20296;-60
2021/03/18 07:30:28;;;;;;;35.22;15.65;;;;;;;;;;4993721;28;20026;-62
2021/03/18 07:32:54;;;;;;;39.85;16.77;;;;;;;;;;4993984;28;20034;-61
2021/03/18 07:35:21;;;;;;;35.53;14.57;;;;;;;;;;5011118;28;20037;-60
2021/03/18 07:37:47;;;;;;;29.70;12.95;;;;;;;;;;5005932;28;20057;-59
2021/03/18 07:40:13;;;;;;;30.48;14.15;;;;;;;;;;4992790;28;20116;-60
2021/03/18 07:42:39;;;;;;;35.75;15.55;;;;;;;;;;5011259;28;20025;-62
2021/03/18 07:45:06;;;;;;;30.98;14.43;;;;;;;;;;5011101;28;20018;-63
2021/03/18 07:47:33;;;;;;;34.97;15.55;;;;;;;;;;5010993;28;20105;-61
2021/03/18 07:49:59;;;;;;;33.33;14.80;;;;;;;;;;5012342;28;20080;-58
2021/03/18 07:52:26;;;;;;;30.90;14.48;;;;;;;;;;5013304;28;20116;-59
2021/03/18 07:54:55;;;;;;;36.75;15.15;;;;;;;;;;5010100;28;20030;-61
2021/03/18 07:57:21;;;;;;;36.17;17.02;;;;;;;;;;5014560;28;20030;-59
2021/03/18 07:59:47;;;;;;;39.25;18.42;;;;;;;;;;5014671;28;20026;-60
2021/03/18 08:02:19;;;;;;;42.22;17.50;;;;;;;;;;5014856;28;20089;-61
2021/03/18 08:04:46;;;;;;;41.35;17.58;;;;;;;;;;5012952;28;20544;-60
2021/03/18 08:07:32;;;;;;;39.78;18.40;;;;;;;;;;5012849;28;20034;-61
2021/03/18 08:10:31;;;;;;;38.95;16.67;;;;;;;;;;5013753;28;20232;-60
2021/03/18 08:13:04;;;;;;;37.67;16.75;;;;;;;;;;4979097;28;20045;-60
2021/03/18 08:15:39;;;;;;;41.95;17.42;;;;;;;;;;5014600;28;20119;-63
2021/03/18 08:18:14;;;;;;;42.63;18.63;;;;;;;;;;5013530;28;20041;-56
2021/03/18 08:20:43;;;;;;;42.42;18.52;;;;;;;;;;4991478;28;20501;-63
2021/03/18 08:23:23;;;;;;;46.72;18.35;;;;;;;;;;5014414;28;20037;-62
2021/03/18 08:25:53;;;;;;;36.08;16.90;;;;;;;;;;4996946;28;20093;-61
2021/03/18 08:28:38;;;;;;;46.80;20.23;;;;;;;;;;5009972;28;20037;-59
2021/03/18 08:31:05;;;;;;;42.05;18.63;;;;;;;;;;5013924;28;20037;-61
2021/03/18 08:33:34;;;;;;;44.33;19.73;;;;;;;;;;5012689;28;20026;-61
2021/03/18 08:36:19;;;;;;;45.97;20.83;;;;;;;;;;5012574;28;20030;-60
2021/03/18 08:38:45;;;;;;;43.88;20.10;;;;;;;;;;5013428;28;20026;-62
2021/03/18 08:41:23;;;;;;;45.45;19.55;;;;;;;;;;5012636;28;20396;-59
2021/03/18 08:44:10;;;;;;;41.75;19.88;;;;;;;;;;5013865;28;20453;-62
2021/03/18 08:46:39;;;;;;;46.85;22.48;;;;;;;;;;5013578;28;20022;-63
2021/03/18 08:49:17;;;;;;;44.42;19.63;;;;;;;;;;4996037;28;20554;-61
2021/03/18 08:51:43;;;;;;;45.22;20.33;;;;;;;;;;5000270;28;20037;-63
2021/03/18 08:54:09;;;;;;;52.38;22.25;;;;;;;;;;5013211;28;20034;-59
2021/03/18 08:56:45;;;;;;;43.45;19.55;;;;;;;;;;5013308;28;20065;-60
2021/03/18 08:59:11;;;;;;;43.30;20.58;;;;;;;;;;5013334;28;20041;-60
2021/03/18 09:01:37;;;;;;;47.38;22.67;;;;;;;;;;5011347;28;20397;-57
2021/03/18 09:04:03;;;;;;;45.17;19.77;;;;;;;;;;5013360;28;20037;-59
2021/03/18 09:06:32;;;;;;;43.20;19.58;;;;;;;;;;5013155;28;20025;-54
2021/03/18 09:08:59;;;;;;;44.25;18.02;;;;;;;;;;5007531;28;20030;-60
2021/03/18 09:11:25;;;;;;;41.20;17.90;;;;;;;;;;4995771;28;20385;-62
2021/03/18 09:13:51;;;;;;;38.55;18.17;;;;;;;;;;4995855;28;20463;-62
2021/03/18 09:16:20;;;;;;;44.33;18.33;;;;;;;;;;5012803;28;20037;-62
2021/03/18 09:18:46;;;;;;;42.88;21.27;;;;;;;;;;4998300;28;20022;-62
2021/03/18 09:21:13;;;;;;;41.53;18.83;;;;;;;;;;5012380;28;20030;-61
2021/03/18 09:23:40;;;;;;;42.58;18.42;;;;;;;;;;5012321;28;20022;-61
2021/03/18 09:26:08;;;;;;;38.60;17.83;;;;;;;;;;5011723;28;20144;-56
2021/03/18 09:28:35;;;;;;;41.17;19.95;;;;;;;;;;5010887;28;20045;-60
2021/03/18 09:31:02;;;;;;;37.97;20.05;;;;;;;;;;5012897;28;20018;-59
2021/03/18 09:33:29;;;;;;;39.78;18.33;;;;;;;;;;5012990;28;20022;-59
2021/03/18 09:35:59;;;;;;;36.97;17.88;;;;;;;;;;5012705;28;20030;-59
2021/03/18 09:38:26;;;;;;;41.70;19.27;;;;;;;;;;4994331;28;20121;-61
2021/03/18 09:40:57;;;;;;;34.33;18.65;;;;;;;;;;5011551;28;20028;-59
2021/03/18 09:43:23;;;;;;;40.15;17.92;;;;;;;;;;5011446;28;20029;-59
2021/03/18 09:45:51;;;;;;;37.35;20.35;;;;;;;;;;5011505;28;20208;-61
2021/03/18 09:48:24;;;;;;;39.40;16.73;;;;;;;;;;5011223;28;20096;-61
2021/03/18 09:50:54;;;;;;;38.33;17.77;;;;;;;;;;5003913;28;20261;-57
2021/03/18 09:53:21;;;;;;;38.65;17.25;;;;;;;;;;5017321;28;20030;-63
2021/03/18 09:55:47;;;;;;;37.65;18.85;;;;;;;;;;5012358;28;20026;-64
2021/03/18 09:58:14;;;;;;;39.30;18.90;;;;;;;;;;5011920;28;22075;-65
2021/03/18 10:00:41;;;;;;;35.63;18.23;;;;;;;;;;5012016;28;20041;-60
2021/03/18 10:03:07;;;;;;;30.60;15.25;;;;;;;;;;5010887;28;20041;-60
2021/03/18 10:05:33;;;;;;;34.63;15.88;;;;;;;;;;5012101;28;20366;-58
2021/03/18 10:08:00;;;;;;;32.78;16.17;;;;;;;;;;5011460;28;20045;-58
2021/03/18 10:10:27;;;;;;;33.95;14.52;;;;;;;;;;5011877;28;20026;-58
2021/03/18 10:12:53;;;;;;;33.78;15.05;;;;;;;;;;5005606;28;20029;-60
2021/03/18 10:15:20;;;;;;;31.50;13.75;;;;;;;;;;4997017;28;20117;-59
2021/03/18 10:17:47;;;;;;;30.85;15.13;;;;;;;;;;5004868;28;20050;-58
2021/03/18 10:20:21;;;;;;;27.10;13.13;;;;;;;;;;4994726;28;20034;-60
2021/03/18 10:23:00;;;;;;;27.25;12.35;;;;;;;;;;5011490;28;20021;-58
2021/03/18 10:25:29;;;;;;;25.48;12.88;;;;;;;;;;4994430;28;20501;-60
2021/03/18 10:27:58;;;;;;;29.00;13.25;;;;;;;;;;5001140;28;20018;-59
2021/03/18 10:30:24;;;;;;;29.92;14.32;;;;;;;;;;4996926;28;20532;-60
2021/03/18 10:33:03;;;;;;;31.17;13.93;;;;;;;;;;5012051;28;20064;-60
2021/03/18 10:35:29;;;;;;;26.02;12.73;;;;;;;;;;4994411;28;20018;-61
2021/03/18 10:37:55;;;;;;;33.15;15.80;;;;;;;;;;4993666;28;20440;-58
2021/03/18 10:40:26;;;;;;;25.88;12.60;;;;;;;;;;4994026;28;20022;-58
2021/03/18 10:42:58;;;;;;;29.60;13.52;;;;;;;;;;4993851;28;20022;-58
2021/03/18 10:45:34;;;;;;;27.02;12.55;;;;;;;;;;5000286;28;20021;-57
2021/03/18 10:48:02;;;;;;;28.88;12.80;;;;;;;;;;5011380;28;20095;-56
2021/03/18 10:50:29;;;;;;;;;;;;;;;;;;5012438;28;20076;-59
2021/03/18 10:52:57;;;;;;;24.95;11.52;;;;;;;;;;5009995;28;20360;-58
2021/03/18 10:55:31;;;;;;;30.98;13.27;;;;;;;;;;5010495;28;20049;-63
2021/03/18 10:58:03;;;;;;;26.48;13.38;;;;;;;;;;5009243;28;20034;-58
2021/03/18 11:00:30;;;;;;;34.40;14.27;;;;;;;;;;5011916;28;20028;-58
2021/03/18 11:03:07;;;;;;;26.98;13.13;;;;;;;;;;5012627;28;20109;-59
2021/03/18 11:05:41;;;;;;;26.77;12.65;;;;;;;;;;5012704;28;20481;-59
2021/03/18 11:08:08;;;;;;;30.50;13.43;;;;;;;;;;5006449;28;20034;-60
2021/03/18 11:10:44;;;;;;;29.88;12.68;;;;;;;;;;5013364;28;20457;-59
2021/03/18 11:13:13;;;;;;;26.30;13.02;;;;;;;;;;4995904;28;20032;-58
2021/03/18 11:15:44;;;;;;;24.55;12.32;;;;;;;;;;4995037;28;20025;-58
2021/03/18 11:18:11;;;;;;;27.80;11.07;;;;;;;;;;5011749;28;20417;-57
2021/03/18 11:20:38;;;;;;;29.58;13.60;;;;;;;;;;4993872;28;20030;-61
2021/03/18 11:23:05;;;;;;;29.73;13.23;;;;;;;;;;5012905;28;20388;-58
2021/03/18 11:25:31;;;;;;;27.40;13.18;;;;;;;;;;5014819;28;20021;-56
2021/03/18 11:27:57;;;;;;;27.60;12.82;;;;;;;;;;5003695;28;20113;-58
2021/03/18 11:30:34;;;;;;;26.75;11.52;;;;;;;;;;5013983;28;20072;-57
2021/03/18 11:33:10;;;;;;;26.60;12.82;;;;;;;;;;5014167;28;20033;-60
2021/03/18 11:35:36;;;;;;;21.90;10.52;;;;;;;;;;5014151;28;20061;-58
2021/03/18 11:38:02;;;;;;;31.67;12.75;;;;;;;;;;5015110;28;20097;-59
2021/03/18 11:40:29;;;;;;;25.33;11.52;;;;;;;;;;5015373;28;20021;-57
2021/03/18 11:42:55;;;;;;;24.83;12.98;;;;;;;;;;5003200;28;20088;-55
2021/03/18 11:45:21;;;;;;;27.15;12.80;;;;;;;;;;4997144;28;20029;-59
2021/03/18 11:47:47;;;;;;;23.40;10.73;;;;;;;;;;5014830;28;20026;-57
2021/03/18 11:50:13;;;;;;;23.17;10.55;;;;;;;;;;5015034;28;20026;-56
2021/03/18 11:52:39;;;;;;;23.42;10.80;;;;;;;;;;5014583;28;20478;-58
2021/03/18 11:55:06;;;;;;;22.10;10.27;;;;;;;;;;4996729;28;20026;-58
2021/03/18 11:57:32;;;;;;;25.02;10.40;;;;;;;;;;5017713;28;20033;-57
2021/03/18 11:59:58;;;;;;;22.70;10.13;;;;;;;;;;4996544;28;20133;-61
2021/03/18 12:02:26;;;;;;;23.77;10.70;;;;;;;;;;5001572;28;20532;-60
2021/03/18 12:04:51;;;;;;;20.83;10.65;;;;;;;;;;5014009;28;20030;-58
2021/03/18 12:07:18;;;;;;;21.83;9.75;;;;;;;;;;5007378;28;20037;-57
2021/03/18 12:09:44;;;;;;;20.02;9.80;;;;;;;;;;5014187;28;20041;-57
2021/03/18 12:12:10;;;;;;;23.80;10.20;;;;;;;;;;5012525;28;20022;-55
2021/03/18 12:14:36;;;;;;;24.35;10.40;;;;;;;;;;5012388;28;20037;-54
2021/03/18 12:17:02;;;;;;;20.77;10.25;;;;;;;;;;5000176;28;20030;-56
2021/03/18 12:19:28;;;;;;;22.67;10.77;;;;;;;;;;5000774;28;20129;-59
2021/03/18 12:21:54;;;;;;;20.88;10.38;;;;;;;;;;5012224;28;20400;-55
2021/03/18 12:24:20;;;;;;;21.45;12.00;;;;;;;;;;5007263;28;20026;-61
2021/03/18 12:26:46;;;;;;;23.35;10.18;;;;;;;;;;5002096;28;20033;-61
2021/03/18 12:29:13;;;;;;;23.27;11.07;;;;;;;;;;5012561;28;20025;-60
2021/03/18 12:31:39;;;;;;;20.58;9.52;;;;;;;;;;5013222;28;20412;-57
2021/03/18 12:34:05;;;;;;;21.83;9.85;;;;;;;;;;5012073;28;20029;-58
2021/03/18 12:36:31;;;;;;;18.27;9.30;;;;;;;;;;5011607;28;20837;-58
2021/03/18 12:38:59;;;;;;;21.17;9.27;;;;;;;;;;5013100;28;20034;-56
2021/03/18 12:41:25;;;;;;;;;;;;;;;;;;5012991;28;20061;-58
2021/03/18 12:43:51;;;;;;;22.17;10.98;;;;;;;;;;5003194;28;19944;-59
2021/03/18 12:46:17;;;;;;;22.27;9.68;;;;;;;;;;5015136;28;20048;-61
2021/03/18 12:48:43;;;;;;;18.63;9.52;;;;;;;;;;5015179;28;20037;-61
2021/03/18 12:51:09;;;;;;;18.63;9.27;;;;;;;;;;5015399;28;20437;-56
2021/03/18 12:53:35;;;;;;;23.30;9.82;;;;;;;;;;5015198;28;20053;-59
2021/03/18 12:56:02;;;;;;;18.25;9.20;;;;;;;;;;5014093;28;20022;-59
2021/03/18 12:58:28;;;;;;;18.67;8.48;;;;;;;;;;5011848;28;20042;-60
2021/03/18 13:00:54;;;;;;;19.80;9.45;;;;;;;;;;5013838;28;20088;-59
2021/03/18 13:03:20;;;;;;;20.13;10.05;;;;;;;;;;5013603;28;20030;-58
2021/03/18 13:05:46;;;;;;;17.55;9.25;;;;;;;;;;5013966;28;20492;-58
2021/03/18 13:08:14;;;;;;;18.83;9.13;;;;;;;;;;5047931;22;20056;-55
2021/03/18 13:10:40;;;;;;;20.17;8.80;;;;;;;;;;5014598;28;20025;-54
2021/03/18 13:13:06;;;;;;;18.05;8.50;;;;;;;;;;5018881;28;20034;-54
2021/03/18 13:15:32;;;;;;;17.77;7.80;;;;;;;;;;5010747;28;20032;-56
2021/03/18 13:17:58;;;;;;;17.67;8.38;;;;;;;;;;5016679;28;20481;-52
2021/03/18 13:20:25;;;;;;;20.95;8.45;;;;;;;;;;5003902;28;20022;-52
2021/03/18 13:22:51;;;;;;;19.88;7.65;;;;;;;;;;4995085;28;20033;-54
2021/03/18 13:25:17;;;;;;;17.52;8.15;;;;;;;;;;5013055;28;20097;-51
2021/03/18 13:27:44;;;;;;;19.80;8.13;;;;;;;;;;5010928;28;20439;-52
2021/03/18 13:30:12;;;;;;;17.40;7.63;;;;;;;;;;4998746;28;20485;-56
2021/03/18 13:32:39;;;;;;;18.13;8.73;;;;;;;;;;5012696;28;20033;-54
2021/03/18 13:35:06;;;;;;;18.35;8.40;;;;;;;;;;5012465;28;20033;-56
2021/03/18 13:37:32;;;;;;;19.95;9.48;;;;;;;;;;5003952;28;20570;-58
2021/03/18 13:39:59;;;;;;;18.15;7.78;;;;;;;;;;5012695;28;20025;-59
2021/03/18 13:42:25;;;;;;;19.52;8.43;;;;;;;;;;5012451;28;20034;-55
2021/03/18 13:44:51;;;;;;;17.33;8.30;;;;;;;;;;5012506;28;20509;-56
2021/03/18 13:47:17;;;;;;;20.42;9.35;;;;;;;;;;4993527;28;20030;-56
2021/03/18 13:49:43;;;;;;;18.30;8.18;;;;;;;;;;5012373;28;20113;-58
2021/03/18 13:52:09;;;;;;;16.73;8.25;;;;;;;;;;5008935;28;20079;-56
2021/03/18 13:54:35;;;;;;;19.17;9.43;;;;;;;;;;4994563;28;20405;-54
2021/03/18 13:57:01;;;;;;;18.80;7.93;;;;;;;;;;4647737;28;10001128;-51
2021/03/18 13:59:27;;;;;;;19.13;8.13;;;;;;;;;;5008534;28;20066;-53
2021/03/18 14:01:53;;;;;;;18.08;8.63;;;;;;;;;;4991029;28;20033;-56
2021/03/18 14:04:19;;;;;;;18.73;9.27;;;;;;;;;;4991419;28;20026;-57
2021/03/18 14:06:45;;;;;;;17.73;8.00;;;;;;;;;;5009310;28;20060;-55
2021/03/18 14:09:12;;;;;;;20.73;9.35;;;;;;;;;;4990893;28;20065;-56
2021/03/18 14:11:38;;;;;;;17.67;9.35;;;;;;;;;;5008658;28;20577;-55
2021/03/18 14:14:04;;;;;;;17.15;8.63;;;16.10;83.70;;;;;;5008981;28;20026;-52
2021/03/18 14:16:29;;;;;;;18.00;8.98;;;7.10;99.90;;;;;;5008700;28;20030;-53
2021/03/18 14:18:58;;;;;;;20.40;9.35;;;7.10;99.90;;;;;;5007986;28;20025;-54
2021/03/18 14:21:24;;;;;;;;;;;7.10;99.90;;;;;;4991628;28;20091;-56
2021/03/18 14:23:50;;;;;;;18.58;8.18;;;7.20;99.90;;;;;;5008524;28;19922;-58
2021/03/18 14:26:16;;;;;;;21.95;9.07;;;7.00;99.90;;;;;;5008932;28;20077;-52